createdAt,value
2019-05-03T00:02:59.424Z,98983.70
2019-05-03T00:06:05.296Z,98977.84
2019-05-03T00:09:09.253Z,98984.39
2019-05-03T00:12:12.690Z,98981.44
2019-05-03T00:15:22.788Z,98977.57
2019-05-03T00:18:24.786Z,98979.19
2019-05-03T00:21:26.684Z,98988.83
2019-05-03T00:24:28.634Z,98992.91
2019-05-03T00:27:32.261Z,98988.70
2019-05-03T00:30:34.840Z,98993.63
2019-05-03T00:33:37.789Z,98997.30
2019-05-03T00:36:47.157Z,98995.48
2019-05-03T00:39:53.678Z,98993.91
2019-05-03T00:42:57.343Z,98995.60
2019-05-03T00:45:59.288Z,98996.29
2019-05-03T00:49:01.214Z,98993.38
2019-05-03T00:52:04.430Z,98990.72
2019-05-03T00:55:16.076Z,98995.23
2019-05-03T00:58:11.752Z,99000.64
2019-05-03T01:01:14.317Z,98994.83
2019-05-03T01:04:16.292Z,99000.36
2019-05-03T01:07:18.236Z,98995.23
2019-05-03T01:10:22.418Z,99005.97
2019-05-03T01:13:24.166Z,99000.77
2019-05-03T01:16:26.075Z,99003.47
2019-05-03T01:19:28.072Z,99003.98
2019-05-03T01:22:31.994Z,99011.66
2019-05-03T01:25:35.546Z,99009.11
2019-05-03T01:28:38.885Z,99004.14
2019-05-03T01:31:42.176Z,99004.66
2019-05-03T01:34:44.194Z,99000.75
2019-05-03T01:37:47.359Z,99005.58
2019-05-03T01:40:49.439Z,99008.84
2019-05-03T01:43:52.618Z,98998.66
2019-05-03T01:46:56.620Z,99002.17
2019-05-03T01:50:00.338Z,99008.05
2019-05-03T01:53:04.597Z,98999.98
2019-05-03T01:56:06.506Z,99003.83
2019-05-03T01:59:08.549Z,99006.02
2019-05-03T02:02:13.069Z,99008.01
2019-05-03T02:05:33.430Z,99005.88
2019-05-03T02:08:35.340Z,99001.80
2019-05-03T02:11:37.348Z,98999.22
2019-05-03T02:14:39.260Z,98995.55
2019-05-03T02:17:42.667Z,98994.36
2019-05-03T02:20:44.871Z,98990.15
2019-05-03T02:23:46.832Z,98985.94
2019-05-03T02:26:48.781Z,98990.58
2019-05-03T02:29:52.429Z,98995.22
2019-05-03T02:32:54.792Z,98989.97
2019-05-03T02:35:56.747Z,99004.55
2019-05-03T02:38:58.672Z,98998.81
2019-05-03T02:42:07.915Z,99002.45
2019-05-03T02:45:09.066Z,98993.41
2019-05-03T02:48:18.628Z,98996.22
2019-05-03T02:51:20.555Z,98992.56
2019-05-03T02:54:22.491Z,98989.09
2019-05-03T02:57:25.893Z,98991.69
2019-05-03T03:00:47.063Z,98987.61
2019-05-03T03:03:49.743Z,98982.89
2019-05-03T03:06:55.461Z,98988.89
2019-05-03T03:09:58.388Z,98993.58
2019-05-03T03:13:05.751Z,98998.50
2019-05-03T03:16:09.056Z,99006.98
2019-05-03T03:19:15.873Z,99007.22
2019-05-03T03:50:05.982Z,99018.39
2019-05-03T03:53:10.060Z,99013.56
2019-05-03T03:56:16.058Z,99016.39
2019-05-03T03:59:18.406Z,99019.55
2019-05-03T04:02:20.463Z,99024.20
2019-05-03T04:05:25.188Z,99027.60
2019-05-03T04:08:26.197Z,99038.11
2019-05-03T04:11:28.220Z,99037.26
2019-05-03T04:14:38.544Z,99043.52
2019-05-03T04:17:59.706Z,99039.91
2019-05-03T04:21:01.738Z,99034.27
2019-05-03T04:24:06.024Z,99035.27
2019-05-03T04:27:18.012Z,99034.00
2019-05-03T04:30:11.641Z,99024.22
2019-05-03T04:33:16.032Z,99027.91
2019-05-03T04:36:17.640Z,99030.36
2019-05-03T04:39:20.385Z,99044.80
2019-05-03T04:42:25.357Z,99045.37
2019-05-03T04:45:26.849Z,99053.78
2019-05-03T04:48:28.910Z,99062.86
2019-05-03T04:51:30.924Z,99065.78
2019-05-03T04:54:41.351Z,99071.31
2019-05-03T04:57:46.787Z,99083.33
2019-05-03T05:00:48.522Z,99091.12
2019-05-03T05:03:50.455Z,99096.99
2019-05-03T05:06:52.447Z,99100.95
2019-05-03T05:09:56.268Z,99105.60
2019-05-03T05:12:58.600Z,99111.70
2019-05-03T05:16:01.162Z,99119.41
2019-05-03T05:19:07.919Z,99115.34
2019-05-03T05:22:15.553Z,99130.10
2019-05-03T05:25:19.847Z,99142.42
2019-05-03T05:28:26.673Z,99144.02
2019-05-03T05:31:28.604Z,99142.92
2019-05-03T05:34:30.574Z,99137.95
2019-05-03T05:37:32.582Z,99144.44
2019-05-03T05:40:35.011Z,99144.11
2019-05-03T05:43:37.624Z,99147.98
2019-05-03T05:46:59.128Z,99145.56
2019-05-03T05:50:04.872Z,99152.04
2019-05-03T05:53:06.828Z,99156.00
2019-05-03T05:56:25.741Z,99160.90
2019-05-03T05:59:29.582Z,99159.23
2019-05-03T06:02:31.786Z,99181.22
2019-05-03T06:05:35.553Z,99189.16
2019-05-03T06:08:39.670Z,99187.21
2019-05-03T06:12:00.567Z,99198.61
2019-05-03T06:15:06.471Z,99207.13
2019-05-03T06:18:14.678Z,99198.61
2019-05-03T06:21:21.630Z,99191.33
2019-05-03T06:24:25.382Z,99192.77
2019-05-03T06:27:29.280Z,99207.87
2019-05-03T06:30:35.012Z,99205.11
2019-05-03T06:33:36.929Z,99218.02
2019-05-03T06:36:40.151Z,99214.51
2019-05-03T06:39:42.071Z,99223.01
2019-05-03T06:42:52.409Z,99223.01
2019-05-03T06:45:50.483Z,99233.22
2019-05-03T06:48:52.118Z,99236.16
2019-05-03T06:51:54.737Z,99239.42
2019-05-03T06:55:00.378Z,99236.91
2019-05-03T06:58:00.648Z,99248.27
2019-05-03T07:01:16.046Z,99252.85
2019-05-03T07:04:36.298Z,99250.34
2019-05-03T07:07:40.085Z,99257.34
2019-05-03T07:10:44.482Z,99265.43
2019-05-03T07:13:46.558Z,99264.06
2019-05-03T07:16:48.475Z,99274.12
2019-05-03T07:19:51.510Z,99283.89
2019-05-03T07:22:55.768Z,99284.39
2019-05-03T07:25:59.114Z,99282.02
2019-05-03T07:29:01.089Z,99282.51
2019-05-03T07:32:05.067Z,99286.41
2019-05-03T07:35:07.171Z,99284.52
2019-05-03T07:38:09.108Z,99289.67
2019-05-03T07:41:11.017Z,99278.11
2019-05-03T07:44:15.136Z,99283.87
2019-05-03T07:47:17.216Z,99284.59
2019-05-03T07:50:19.099Z,99294.86
2019-05-03T07:53:21.091Z,99293.20
2019-05-03T07:56:25.483Z,99304.82
2019-05-03T07:59:28.825Z,99307.54
2019-05-03T08:02:30.752Z,99310.67
2019-05-03T08:05:32.640Z,99303.98
2019-05-03T08:08:35.408Z,99310.64
2019-05-03T08:11:37.792Z,99313.80
2019-05-03T08:14:39.655Z,99312.12
2019-05-03T08:17:41.674Z,99315.35
2019-05-03T08:20:45.155Z,99324.95
2019-05-03T08:23:47.460Z,99323.67
2019-05-03T08:26:49.325Z,99319.59
2019-05-03T08:29:51.282Z,99319.85
2019-05-03T08:33:01.002Z,99317.64
2019-05-03T08:36:04.840Z,99327.28
2019-05-03T08:39:06.910Z,99325.55
2019-05-03T08:42:10.674Z,99324.75
2019-05-03T08:45:14.649Z,99319.25
2019-05-03T08:48:17.471Z,99323.23
2019-05-03T08:51:19.434Z,99328.00
2019-05-03T08:54:21.356Z,99330.05
2019-05-03T08:57:25.422Z,99329.91
2019-05-03T09:00:28.984Z,99326.95
2019-05-03T09:03:30.935Z,99326.49
2019-05-03T09:06:32.799Z,99334.20
2019-05-03T09:09:36.951Z,99344.48
2019-05-03T09:12:57.288Z,99334.73
2019-05-03T09:15:59.315Z,99332.84
2019-05-03T09:19:01.258Z,99342.62
2019-05-03T09:22:06.277Z,99336.98
2019-05-03T09:25:08.388Z,99333.75
2019-05-03T09:28:10.377Z,99329.42
2019-05-03T09:31:12.432Z,99330.45
2019-05-03T09:34:14.843Z,99327.06
2019-05-03T09:37:17.052Z,99326.50
2019-05-03T09:40:18.959Z,99327.03
2019-05-03T09:43:21.026Z,99331.09
2019-05-03T09:46:25.659Z,99320.67
2019-05-03T09:49:26.925Z,99324.45
2019-05-03T09:52:28.844Z,99325.27
2019-05-03T09:55:32.598Z,99322.50
2019-05-03T09:58:37.918Z,99328.77
2019-05-03T10:01:38.555Z,99323.92
2019-05-03T10:04:40.561Z,99325.72
2019-05-03T10:07:42.513Z,99318.67
2019-05-03T10:11:05.295Z,99322.75
2019-05-03T10:14:08.549Z,99320.48
2019-05-03T10:17:28.699Z,99321.36
2019-05-03T10:20:30.698Z,99322.96
2019-05-03T10:23:35.782Z,99322.28
2019-05-03T10:26:38.125Z,99323.92
2019-05-03T10:29:40.034Z,99328.11
2019-05-03T10:32:52.874Z,99319.30
2019-05-03T10:35:54.873Z,99325.84
2019-05-03T10:38:56.975Z,99317.39
2019-05-03T10:41:58.929Z,99314.73
2019-05-03T10:45:00.843Z,99317.59
2019-05-03T10:48:04.806Z,99324.66
2019-05-03T10:51:06.756Z,99326.22
2019-05-03T10:54:08.775Z,99322.47
2019-05-03T10:57:15.926Z,99320.86
2019-05-03T11:00:42.553Z,99323.73
2019-05-03T11:03:23.923Z,99322.47
2019-05-03T11:06:25.972Z,99317.23
2019-05-03T11:09:27.954Z,99319.22
2019-05-03T11:12:29.964Z,99317.83
2019-05-03T11:15:31.891Z,99314.59
2019-05-03T11:18:34.788Z,99324.31
2019-05-03T11:21:36.695Z,99308.70
2019-05-03T11:24:38.985Z,99318.62
2019-05-03T11:27:44.615Z,99320.34
2019-05-03T11:30:55.313Z,99315.26
2019-05-03T11:33:50.762Z,99316.90
2019-05-03T11:36:57.320Z,99306.94
2019-05-03T11:39:59.270Z,99307.16
2019-05-03T11:43:02.068Z,99314.52
2019-05-03T11:46:04.052Z,99315.23
2019-05-03T11:49:05.982Z,99318.94
2019-05-03T11:52:07.869Z,99325.52
2019-05-03T11:55:11.822Z,99325.23
2019-05-03T11:58:18.069Z,99326.97
2019-05-03T12:01:21.947Z,99333.58
2019-05-03T12:04:24.953Z,99323.34
2019-05-03T12:07:39.345Z,99328.88
2019-05-03T12:10:51.608Z,99326.70
2019-05-03T12:13:40.820Z,99319.08
2019-05-03T12:19:50.974Z,99320.29
2019-05-03T12:22:54.224Z,99314.09
2019-05-03T12:25:57.804Z,99309.25
2019-05-03T12:29:00.120Z,99313.88
2019-05-03T12:32:02.121Z,99306.82
2019-05-03T12:35:06.097Z,99311.78
2019-05-03T12:38:08.211Z,99309.92
2019-05-03T12:41:10.189Z,99302.75
2019-05-03T12:44:12.209Z,99305.55
2019-05-03T12:47:14.601Z,99305.09
2019-05-03T12:50:18.183Z,99312.27
2019-05-03T12:53:21.989Z,99304.84
2019-05-03T12:56:32.378Z,99309.36
2019-05-03T12:59:30.980Z,99317.55
2019-05-03T13:02:34.763Z,99314.63
2019-05-03T13:05:36.938Z,99320.09
2019-05-03T13:08:40.478Z,99315.47
2019-05-03T13:11:53.025Z,99305.80
2019-05-03T13:14:48.976Z,99294.97
2019-05-03T13:17:50.943Z,99301.50
2019-05-03T13:20:52.875Z,99298.79
2019-05-03T13:23:54.983Z,99299.36
2019-05-03T13:26:57.135Z,99297.96
2019-05-03T13:29:59.400Z,99295.86
2019-05-03T13:33:01.321Z,99307.33
2019-05-03T13:36:04.039Z,99297.69
2019-05-03T13:39:13.357Z,99300.09
2019-05-03T13:42:11.919Z,99300.92
2019-05-03T13:45:13.888Z,99294.35
2019-05-03T13:48:20.993Z,99304.87
2019-05-03T13:51:19.708Z,99297.53
2019-05-03T13:54:21.623Z,99294.10
2019-05-03T13:57:24.585Z,99294.11
2019-05-03T14:00:26.650Z,99287.27
2019-05-03T14:03:28.718Z,99284.84
2019-05-03T14:06:33.603Z,99284.55
2019-05-03T14:09:34.900Z,99280.70
2019-05-03T14:12:37.238Z,99283.73
2019-05-03T14:15:39.231Z,99291.50
2019-05-03T14:18:41.585Z,99292.36
2019-05-03T14:21:45.565Z,99291.02
2019-05-03T14:24:47.707Z,99280.25
2019-05-03T14:27:59.668Z,99278.14
2019-05-03T14:31:05.131Z,99288.34
2019-05-03T14:34:10.908Z,99283.48
2019-05-03T14:37:13.294Z,99279.33
2019-05-03T14:40:15.236Z,99280.31
2019-05-03T14:43:17.213Z,99278.39
2019-05-03T14:46:30.033Z,99280.88
2019-05-03T14:49:23.081Z,99284.11
2019-05-03T14:52:25.268Z,99279.93
2019-05-03T14:55:42.347Z,99279.86
2019-05-03T14:58:52.294Z,99284.37
2019-05-03T15:01:56.097Z,99288.02
2019-05-03T15:04:58.219Z,99296.66
2019-05-03T15:08:00.246Z,99288.50
2019-05-03T15:11:02.411Z,99286.58
2019-05-03T15:14:05.625Z,99287.80
2019-05-03T15:17:07.956Z,99282.81
2019-05-03T15:20:10.970Z,99281.55
2019-05-03T15:23:14.675Z,99275.17
2019-05-03T15:26:16.836Z,99283.02
2019-05-03T15:29:18.871Z,99279.41
2019-05-03T15:32:20.878Z,99290.95
2019-05-03T15:35:23.052Z,99289.30
2019-05-03T15:38:25.044Z,99290.66
2019-05-03T15:41:27.033Z,99298.59
2019-05-03T15:44:47.554Z,99293.95
2019-05-03T15:47:51.403Z,99298.34
2019-05-03T15:50:55.183Z,99303.59
2019-05-03T15:53:57.281Z,99299.79
2019-05-03T15:56:59.234Z,99296.16
2019-05-03T16:00:03.088Z,99303.83
2019-05-03T16:03:10.460Z,99295.05
2019-05-03T16:06:11.284Z,99303.70
2019-05-03T16:09:15.221Z,99306.40
2019-05-03T16:12:18.321Z,99310.41
2019-05-03T16:15:21.867Z,99304.05
2019-05-03T16:18:24.603Z,99298.97
2019-05-03T16:21:27.684Z,99302.45
2019-05-03T16:24:35.491Z,99305.39
2019-05-03T16:27:39.365Z,99300.19
2019-05-03T16:30:45.415Z,99303.04
2019-05-03T16:33:49.367Z,99304.50
2019-05-03T16:36:54.855Z,99307.20
2019-05-03T16:39:57.903Z,99299.93
2019-05-03T16:42:59.939Z,99298.05
2019-05-03T16:46:01.910Z,99299.50
2019-05-03T16:49:04.562Z,99297.81
2019-05-03T16:52:08.221Z,99295.13
2019-05-03T16:55:10.209Z,99302.39
2019-05-03T16:58:12.227Z,99299.60
2019-05-03T17:01:17.831Z,99305.23
2019-05-03T17:04:30.252Z,99311.72
2019-05-03T17:07:45.417Z,99310.38
2019-05-03T17:10:52.046Z,99315.63
2019-05-03T17:13:57.637Z,99323.11
2019-05-03T17:17:00.336Z,99327.13
2019-05-03T17:20:05.611Z,99335.41
2019-05-03T17:23:09.071Z,99332.52
2019-05-03T17:26:11.092Z,99333.06
2019-05-03T17:29:13.122Z,99343.82
2019-05-03T17:32:15.398Z,99339.47
2019-05-03T17:35:18.870Z,99347.59
2019-05-03T17:38:20.807Z,99346.13
2019-05-03T17:41:28.611Z,99344.81
2019-05-03T17:44:34.523Z,99351.55
2019-05-03T17:47:38.993Z,99347.28
2019-05-03T17:50:40.979Z,99357.88
2019-05-03T17:53:56.870Z,99356.36
2019-05-03T17:57:17.725Z,99358.87
2019-05-03T18:00:35.301Z,99364.80
2019-05-03T18:03:39.068Z,99367.59
2019-05-03T18:06:42.926Z,99370.52
2019-05-03T18:09:46.716Z,99371.73
2019-05-03T18:12:48.979Z,99383.15
2019-05-03T18:15:54.355Z,99383.40
2019-05-03T18:18:56.537Z,99385.17
2019-05-03T18:21:59.893Z,99386.17
2019-05-03T18:25:04.952Z,99390.16
2019-05-03T18:28:07.184Z,99388.72
2019-05-03T18:31:09.142Z,99392.42
2019-05-03T18:34:19.176Z,99394.05
2019-05-03T18:37:18.386Z,99400.81
2019-05-03T18:40:20.702Z,99401.97
2019-05-03T18:43:30.583Z,99412.78
2019-05-03T18:46:37.899Z,99407.11
2019-05-03T18:49:47.531Z,99408.90
2019-05-03T18:52:51.896Z,99418.02
2019-05-03T18:55:55.182Z,99423.30
2019-05-03T18:58:57.681Z,99417.73
2019-05-03T19:02:01.882Z,99418.58
2019-05-03T19:05:06.663Z,99419.67
2019-05-03T19:08:19.689Z,99430.16
2019-05-03T19:11:31.131Z,99429.10
2019-05-03T19:14:36.397Z,99434.75
2019-05-03T19:17:41.498Z,99432.73
2019-05-03T19:20:45.584Z,99432.00
2019-05-03T19:23:47.524Z,99435.13
2019-05-03T19:26:49.497Z,99432.23
2019-05-03T19:29:55.412Z,99434.24
2019-05-03T19:32:57.813Z,99434.66
2019-05-03T19:36:01.172Z,99439.77
2019-05-03T19:39:06.462Z,99440.75
2019-05-03T19:42:15.398Z,99435.09
2019-05-03T19:45:21.024Z,99435.48
2019-05-03T19:48:25.929Z,99430.59
2019-05-03T19:51:30.726Z,99431.43
2019-05-03T19:54:36.520Z,99421.39
2019-05-03T19:57:42.283Z,99421.16
2019-05-03T20:00:52.439Z,99429.72
2019-05-03T20:04:12.454Z,99417.16
2019-05-03T20:07:22.063Z,99410.91
2019-05-03T20:10:25.397Z,99412.87
2019-05-03T20:13:34.602Z,99416.73
2019-05-03T20:16:31.767Z,99412.65
2019-05-03T20:19:34.704Z,99414.33
2019-05-03T20:22:45.116Z,99412.19
2019-05-03T20:25:47.159Z,99416.05
2019-05-03T20:28:49.111Z,99416.86
2019-05-03T20:31:51.127Z,99405.42
2019-05-03T20:34:56.198Z,99412.53
2019-05-03T20:38:00.076Z,99410.91
2019-05-03T20:41:05.239Z,99410.66
2019-05-03T20:44:11.018Z,99413.70
2019-05-03T20:47:16.538Z,99414.00
2019-05-03T20:50:20.561Z,99406.31
2019-05-03T20:53:25.121Z,99406.35
2019-05-03T20:56:28.871Z,99400.37
2019-05-03T20:59:42.153Z,99402.55
2019-05-03T21:02:50.518Z,99404.20
2019-05-03T21:05:42.163Z,99402.00
2019-05-03T21:08:52.921Z,99399.00
2019-05-03T21:11:48.464Z,99403.09
2019-05-03T21:14:50.419Z,99399.25
2019-05-03T21:17:55.564Z,99395.98
2019-05-03T21:21:09.426Z,99402.53
2019-05-03T21:24:13.215Z,99402.22
2019-05-03T21:27:15.332Z,99416.42
2019-05-03T21:30:17.454Z,99412.02
2019-05-03T21:33:19.443Z,99413.39
2019-05-03T21:36:21.425Z,99412.27
2019-05-03T21:39:24.643Z,99417.42
2019-05-03T21:42:27.013Z,99416.33
2019-05-03T21:45:37.104Z,99412.48
2019-05-03T21:48:59.689Z,99413.02
2019-05-03T21:52:01.640Z,99419.27
2019-05-03T21:55:05.600Z,99413.50
2019-05-03T21:58:07.513Z,99412.10
2019-05-03T22:01:11.258Z,99412.66
2019-05-03T22:04:15.420Z,99413.21
2019-05-03T22:07:17.112Z,99415.41
2019-05-03T22:10:19.049Z,99410.20
2019-05-03T22:13:21.046Z,99410.67
2019-05-03T22:16:41.406Z,99407.91
2019-05-03T22:19:45.134Z,99413.33
2019-05-03T22:22:48.879Z,99412.50
2019-05-03T22:25:50.807Z,99412.77
2019-05-03T22:28:54.712Z,99412.20
2019-05-03T22:31:56.754Z,99410.83
2019-05-03T22:34:58.635Z,99412.19
2019-05-03T22:38:00.674Z,99408.94
2019-05-03T22:41:02.736Z,99413.28
2019-05-03T22:44:04.716Z,99416.59
2019-05-03T22:47:07.744Z,99412.75
2019-05-03T22:50:09.939Z,99413.55
2019-05-03T22:53:11.875Z,99407.84
2019-05-03T22:56:14.512Z,99412.77
2019-05-03T22:59:16.913Z,99409.51
2019-05-03T23:02:18.920Z,99410.61
2019-05-03T23:05:20.833Z,99413.37
2019-05-03T23:08:22.748Z,99412.50
2019-05-03T23:11:24.718Z,99412.20
2019-05-03T23:14:26.633Z,99411.37
2019-05-03T23:17:28.537Z,99411.34
2019-05-03T23:20:41.390Z,99414.64
2019-05-03T23:23:51.520Z,99406.99
2019-05-03T23:26:53.378Z,99407.22
2019-05-03T23:29:55.434Z,99407.48
2019-05-03T23:32:58.831Z,99406.94
2019-05-03T23:36:00.790Z,99406.73
2019-05-03T23:39:05.102Z,99409.28
2019-05-03T23:42:07.472Z,99400.39
2019-05-03T23:45:09.427Z,99397.40
2019-05-03T23:48:11.326Z,99387.38
2019-05-03T23:51:31.444Z,99394.73
2019-05-03T23:54:33.360Z,99391.16
2019-05-03T23:57:35.674Z,99385.44
